^^

..:: Storico WU ::..




Lo storico viene creato da WUnderground con i dati che la stazione Meteomincio invia al loro server. L' aggiornamento viene fatto ogni 5 minuti circa, tuttavia possono esserci intervalli pił ampi a causa di errori, interruzioni di servizio o problemi nell' invio tramite FTP.


Storico stazione MeteoMincio
Giorno Sommario per Ottobre 24, 2022 Unità:  Inglese    Metrico   Entrambi
Giorno Settimana Mese Anno
  Max: Min: Media:
Temperatura: 73.4 °F 57.2 °F 64.8 °F
Dew Point: 66.2 °F 55.4 °F 61.2 °F
Umidità: 95% 76% 89%
Velocità vento: 10.6mph 0mph 4.5mph
Raffica: 16.2mph - -
Direzione- - East
Pressione: 30.1 in 30 in -
Precipitazioni: 0 in    
 
 
Tabulato Dati per Ottobre 24, 2022
Ora Temperatura Dew Point Pressione Direzione Velocità vento Raffica Umidità Intensità pioggia (oraria) Info solare Situazione
00:04 62.6 °F 59 °F 30.1 in ENE 3.1 mph 5 mph 90% 0 in 0.00 W/m2 unknown
00:09 62.6 °F 59 °F 30.1 in East 3.1 mph 5 mph 90% 0 in 0.00 W/m2 unknown
00:14 60.8 °F 59 °F 30.1 in ENE 1.9 mph 3.7 mph 90% 0 in 0.00 W/m2 unknown
00:19 60.8 °F 59 °F 30.1 in NE 3.1 mph 3.7 mph 90% 0 in 0.00 W/m2 unknown
00:24 60.8 °F 59 °F 30.1 in NE 3.1 mph 3.7 mph 91% 0 in 0.00 W/m2 unknown
00:29 60.8 °F 59 °F 30.1 in NE 3.1 mph 3.7 mph 91% 0 in 0.00 W/m2 unknown
00:34 60.8 °F 59 °F 30.1 in NE 3.1 mph 3.7 mph 91% 0 in 0.00 W/m2 unknown
00:39 60.8 °F 59 °F 30.1 in NE 3.1 mph 3.7 mph 91% 0 in 0.00 W/m2 unknown
00:44 60.8 °F 59 °F 30.1 in ENE 3.1 mph 3.7 mph 91% 0 in 0.00 W/m2 unknown
00:49 60.8 °F 59 °F 30.1 in ENE 3.1 mph 3.7 mph 91% 0 in 0.00 W/m2 unknown
00:54 60.8 °F 59 °F 30.1 in NE 3.1 mph 3.7 mph 91% 0 in 0.00 W/m2 unknown
00:59 60.8 °F 59 °F 30.1 in ENE 3.7 mph 5 mph 91% 0 in 0.00 W/m2 unknown
01:04 60.8 °F 59 °F 30.1 in NE 3.1 mph 5 mph 91% 0 in 0.00 W/m2 unknown
01:09 60.8 °F 59 °F 30.1 in NE 2.5 mph 5 mph 91% 0 in 0.00 W/m2 unknown
01:14 60.8 °F 57.2 °F 30.1 in NNE 1.2 mph 3.1 mph 91% 0 in 0.00 W/m2 unknown
01:19 60.8 °F 57.2 °F 30.1 in NE 1.2 mph 2.5 mph 91% 0 in 0.00 W/m2 unknown
01:24 60.8 °F 59 °F 30.1 in NE 1.2 mph 2.5 mph 92% 0 in 0.00 W/m2 unknown
01:29 60.8 °F 57.2 °F 30.1 in NE 3.1 mph 3.7 mph 92% 0 in 0.00 W/m2 unknown
01:34 60.8 °F 57.2 °F 30.1 in NE 3.1 mph 3.7 mph 92% 0 in 0.00 W/m2 unknown
01:39 60.8 °F 57.2 °F 30.1 in NNE 3.1 mph 3.7 mph 92% 0 in 0.00 W/m2 unknown
01:44 60.8 °F 57.2 °F 30.1 in NE 1.9 mph 3.7 mph 92% 0 in 0.00 W/m2 unknown
01:49 60.8 °F 57.2 °F 30.1 in NE 1.2 mph 3.1 mph 92% 0 in 0.00 W/m2 unknown
01:54 60.8 °F 57.2 °F 30.1 in ENE 1.9 mph 3.1 mph 92% 0 in 0.00 W/m2 unknown
01:59 59 °F 57.2 °F 30.1 in East 1.9 mph 3.7 mph 92% 0 in 0.00 W/m2 unknown
02:04 59 °F 57.2 °F 30.1 in ENE 3.1 mph 3.7 mph 93% 0 in 0.00 W/m2 unknown
02:09 59 °F 57.2 °F 30.1 in NE 3.1 mph 3.7 mph 93% 0 in 0.00 W/m2 unknown
02:14 59 °F 57.2 °F 30.1 in ENE 1.2 mph 3.1 mph 93% 0 in 0.00 W/m2 unknown
02:19 59 °F 57.2 °F 30.1 in East 1.9 mph 3.7 mph 93% 0 in 0.00 W/m2 unknown
02:24 60.8 °F 57.2 °F 30.1 in ENE 1.9 mph 3.7 mph 93% 0 in 0.00 W/m2 unknown
02:29 59 °F 57.2 °F 30.1 in NNE 1.9 mph 3.7 mph 93% 0 in 0.00 W/m2 unknown
02:34 59 °F 57.2 °F 30.1 in NE 1.2 mph 3.1 mph 93% 0 in 0.00 W/m2 unknown
02:39 59 °F 57.2 °F 30.1 in ENE 1.2 mph 2.5 mph 93% 0 in 0.00 W/m2 unknown
02:44 59 °F 57.2 °F 30.1 in ENE 1.2 mph 2.5 mph 93% 0 in 0.00 W/m2 unknown
02:49 59 °F 57.2 °F 30.1 in East 1.2 mph 2.5 mph 93% 0 in 0.00 W/m2 unknown
02:54 59 °F 57.2 °F 30.1 in East 1.2 mph 2.5 mph 93% 0 in 0.00 W/m2 unknown
02:59 59 °F 57.2 °F 30.1 in East 1.2 mph 2.5 mph 93% 0 in 0.00 W/m2 unknown
03:04 59 °F 57.2 °F 30.1 in East 0.6 mph 1.9 mph 93% 0 in 0.00 W/m2 unknown
03:09 59 °F 57.2 °F 30.1 in East 0.6 mph 1.2 mph 93% 0 in 0.00 W/m2 unknown
03:14 59 °F 57.2 °F 30.1 in Calm   1.2 mph 93% 0 in 0.00 W/m2 unknown
03:19 59 °F 57.2 °F 30.1 in Calm   1.2 mph 93% 0 in 0.00 W/m2 unknown
03:24 59 °F 57.2 °F 30.1 in East 0.6 mph 1.2 mph 93% 0 in 0.00 W/m2 unknown
03:29 59 °F 57.2 °F 30.1 in East 2.5 mph 3.7 mph 93% 0 in 0.00 W/m2 unknown
03:34 59 °F 57.2 °F 30.1 in NE 2.5 mph 3.7 mph 93% 0 in 0.00 W/m2 unknown
03:39 59 °F 57.2 °F 30.1 in NNE 2.5 mph 3.7 mph 93% 0 in 0.00 W/m2 unknown
03:44 59 °F 57.2 °F 30.1 in ENE 2.5 mph 3.7 mph 93% 0 in 0.00 W/m2 unknown
03:49 59 °F 57.2 °F 30.1 in ENE 1.9 mph 3.7 mph 93% 0 in 0.00 W/m2 unknown
03:54 59 °F 57.2 °F 30.1 in ENE 2.5 mph 3.7 mph 93% 0 in 0.00 W/m2 unknown
03:59 59 °F 57.2 °F 30.1 in East 2.5 mph 3.7 mph 93% 0 in 0.00 W/m2 unknown
04:04 59 °F 57.2 °F 30.1 in ENE 1.9 mph 3.7 mph 93% 0 in 0.00 W/m2 unknown
04:09 59 °F 57.2 °F 30.1 in NE 1.2 mph 2.5 mph 93% 0 in 0.00 W/m2 unknown
04:14 59 °F 57.2 °F 30.1 in NNE 0.6 mph 1.9 mph 93% 0 in 0.00 W/m2 unknown
04:19 59 °F 57.2 °F 30.1 in NNE 0.6 mph 2.5 mph 93% 0 in 0.00 W/m2 unknown
04:24 59 °F 57.2 °F 30.1 in NNE 1.2 mph 2.5 mph 93% 0 in 0.00 W/m2 unknown
04:29 59 °F 57.2 °F 30.1 in NNW 1.2 mph 2.5 mph 93% 0 in 0.00 W/m2 unknown
04:34 59 °F 57.2 °F 30.1 in NW 1.2 mph 2.5 mph 93% 0 in 0.00 W/m2 unknown
04:39 59 °F 57.2 °F 30.1 in Calm   1.9 mph 93% 0 in 0.00 W/m2 unknown
04:44 59 °F 57.2 °F 30.1 in NW 0.6 mph 1.2 mph 93% 0 in 0.00 W/m2 unknown
04:49 59 °F 55.4 °F 30.1 in NW 0.6 mph 1.2 mph 93% 0 in 0.00 W/m2 unknown
04:54 57.2 °F 55.4 °F 30.1 in Calm   1.2 mph 93% 0 in 0.00 W/m2 unknown
04:59 57.2 °F 55.4 °F 30.1 in Calm     93% 0 in 0.00 W/m2 unknown
05:04 57.2 °F 55.4 °F 30.1 in Calm     93% 0 in 0.00 W/m2 unknown
05:09 57.2 °F 55.4 °F 30.1 in Calm   1.2 mph 94% 0 in 0.00 W/m2 unknown
05:14 57.2 °F 55.4 °F 30.1 in NW 0.6 mph 1.2 mph 94% 0 in 0.00 W/m2 unknown
05:19 57.2 °F 55.4 °F 30.1 in NNE 1.2 mph 2.5 mph 94% 0 in 0.00 W/m2 unknown
05:24 57.2 °F 55.4 °F 30.1 in NNE 1.2 mph 2.5 mph 94% 0 in 0.00 W/m2 unknown
05:29 57.2 °F 55.4 °F 30.1 in Calm   1.9 mph 94% 0 in 0.00 W/m2 unknown
05:34 57.2 °F 55.4 °F 30.1 in NNE 0.6 mph 1.2 mph 94% 0 in 0.00 W/m2 unknown
05:39 57.2 °F 55.4 °F 30.1 in NNE 0.6 mph 2.5 mph 94% 0 in 0.00 W/m2 unknown
05:44 57.2 °F 55.4 °F 30.1 in East 1.9 mph 3.7 mph 94% 0 in 0.00 W/m2 unknown
05:49 57.2 °F 55.4 °F 30.1 in ESE 1.9 mph 3.7 mph 94% 0 in 0.00 W/m2 unknown
05:54 57.2 °F 55.4 °F 30.1 in NE 2.5 mph 3.7 mph 94% 0 in 0.00 W/m2 unknown
05:59 57.2 °F 55.4 °F 30.1 in ENE 3.1 mph 3.7 mph 94% 0 in 0.00 W/m2 unknown
06:04 59 °F 57.2 °F 30.1 in ENE 2.5 mph 3.7 mph 94% 0 in 0.00 W/m2 unknown
06:09 59 °F 57.2 °F 30.1 in East 3.1 mph 3.7 mph 94% 0 in 0.00 W/m2 unknown
06:14 59 °F 57.2 °F 30.1 in East 4.3 mph 6.2 mph 94% 0 in 0.00 W/m2 unknown
06:19 59 °F 57.2 °F 30.1 in ENE 3.7 mph 5.6 mph 94% 0 in 0.00 W/m2 unknown
06:24 59 °F 57.2 °F 30.1 in East 3.7 mph 6.2 mph 94% 0 in 0.00 W/m2 unknown
06:29 59 °F 57.2 °F 30.1 in ENE 3.7 mph 5.6 mph 94% 0 in 0.00 W/m2 unknown
06:34 59 °F 57.2 °F 30.1 in NE 3.7 mph 6.2 mph 94% 0 in 0.00 W/m2 unknown
06:39 59 °F 57.2 °F 30.1 in NNE 3.1 mph 3.7 mph 94% 0 in 0.00 W/m2 unknown
06:44 59 °F 57.2 °F 30.1 in NNE 3.1 mph 3.7 mph 94% 0 in 0.00 W/m2 unknown
06:49 59 °F 57.2 °F 30.1 in NE 3.1 mph 3.7 mph 94% 0 in 0.00 W/m2 unknown
06:54 59 °F 57.2 °F 30.1 in NE 3.7 mph 5 mph 94% 0 in 0.00 W/m2 unknown
06:59 59 °F 57.2 °F 30.1 in NE 4.3 mph 5 mph 94% 0 in 0.00 W/m2 unknown
07:04 59 °F 57.2 °F 30.1 in NE 3.7 mph 5 mph 94% 0 in 0.00 W/m2 unknown
07:09 59 °F 57.2 °F 30.1 in NE 3.1 mph 5 mph 94% 0 in 0.00 W/m2 unknown
07:14 57.2 °F 55.4 °F 30.1 in ENE 3.1 mph 3.7 mph 94% 0 in 0.00 W/m2 unknown
07:19 57.2 °F 55.4 °F 30.1 in ENE 2.5 mph 3.7 mph 94% 0 in 0.00 W/m2 unknown
07:24 57.2 °F 55.4 °F 30.1 in NE 2.5 mph 3.7 mph 94% 0 in 0.00 W/m2 unknown
07:29 57.2 °F 55.4 °F 30.1 in NE 1.2 mph 3.1 mph 94% 0 in 0.00 W/m2 unknown
07:34 57.2 °F 55.4 °F 30.1 in Calm   1.9 mph 94% 0 in 0.00 W/m2 unknown
07:39 57.2 °F 55.4 °F 30.1 in ENE 1.9 mph 3.1 mph 94% 0 in 0.00 W/m2 unknown
07:44 57.2 °F 55.4 °F 30.1 in ENE 2.5 mph 3.7 mph 94% 0 in 0.00 W/m2 unknown
07:49 57.2 °F 55.4 °F 30.1 in East 2.5 mph 3.7 mph 94% 0 in 0.00 W/m2 unknown
07:54 57.2 °F 55.4 °F 30.1 in ESE 1.9 mph 3.1 mph 94% 0 in 7.00 W/m2 unknown
07:59 57.2 °F 55.4 °F 30.1 in East 1.9 mph 3.7 mph 94% 0 in 11.00 W/m2 unknown
08:04 57.2 °F 55.4 °F 30.1 in East 2.5 mph 3.7 mph 94% 0 in 14.00 W/m2 unknown
08:09 57.2 °F 55.4 °F 30.1 in ESE 3.1 mph 3.7 mph 94% 0 in 19.00 W/m2 unknown
08:14 57.2 °F 55.4 °F 30.1 in ESE 3.1 mph 3.7 mph 94% 0 in 25.00 W/m2 unknown
08:19 57.2 °F 55.4 °F 30.1 in WSW 1.9 mph 3.7 mph 95% 0 in 32.00 W/m2 unknown
08:24 57.2 °F 57.2 °F 30.1 in NE 3.1 mph 3.7 mph 95% 0 in 39.00 W/m2 unknown
08:29 59 °F 57.2 °F 30.1 in East 3.1 mph 3.7 mph 95% 0 in 53.00 W/m2 unknown
08:34 59 °F 57.2 °F 30.1 in East 1.9 mph 3.7 mph 95% 0 in 69.00 W/m2 unknown
08:39 59 °F 57.2 °F 30.1 in Calm   3.1 mph 95% 0 in 76.00 W/m2 unknown
08:44 59 °F 57.2 °F 30.1 in East 1.2 mph 1.9 mph 95% 0 in 79.00 W/m2 unknown
08:49 59 °F 57.2 °F 30.1 in ENE 1.9 mph 3.7 mph 95% 0 in 84.00 W/m2 unknown
08:54 59 °F 57.2 °F 30.1 in ESE 1.9 mph 3.7 mph 94% 0 in 84.00 W/m2 unknown
08:59 60.8 °F 59 °F 30.1 in ESE 2.5 mph 3.7 mph 94% 0 in 70.00 W/m2 unknown
09:04 60.8 °F 59 °F 30.1 in East 1.9 mph 3.1 mph 94% 0 in 72.00 W/m2 unknown
09:09 60.8 °F 59 °F 30.1 in East 1.9 mph 3.1 mph 94% 0 in 72.00 W/m2 unknown
09:14 60.8 °F 59 °F 30.1 in ESE 1.9 mph 3.7 mph 94% 0 in 69.00 W/m2 unknown
09:19 60.8 °F 59 °F 30.1 in East 1.9 mph 3.1 mph 93% 0 in 79.00 W/m2 unknown
09:24 60.8 °F 59 °F 30.1 in ESE 4.3 mph 6.2 mph 93% 0 in 120.00 W/m2 unknown
09:29 62.6 °F 60.8 °F 30.1 in East 5 mph 6.8 mph 93% 0 in 123.00 W/m2 unknown
09:34 62.6 °F 60.8 °F 30.1 in ENE 5 mph 6.8 mph 92% 0 in 160.00 W/m2 unknown
09:39 62.6 °F 60.8 °F 30.1 in NE 1.9 mph 6.8 mph 92% 0 in 183.00 W/m2 unknown
09:44 64.4 °F 60.8 °F 30.1 in East 5.6 mph 6.8 mph 92% 0 in 192.00 W/m2 unknown
09:49 64.4 °F 60.8 °F 30.1 in East 4.3 mph 6.8 mph 91% 0 in 211.00 W/m2 unknown
09:54 64.4 °F 60.8 °F 30.1 in East 6.2 mph 10.6 mph 91% 0 in 229.00 W/m2 unknown
09:59 64.4 °F 62.6 °F 30.1 in East 6.8 mph 9.9 mph 90% 0 in 274.00 W/m2 unknown
10:04 64.4 °F 62.6 °F 30.1 in East 9.9 mph 14.3 mph 90% 0 in 301.00 W/m2 unknown
10:09 66.2 °F 62.6 °F 30.1 in East 8.7 mph 14.3 mph 89% 0 in 327.00 W/m2 unknown
10:14 66.2 °F 62.6 °F 30.1 in East 9.9 mph 14.3 mph 89% 0 in 353.00 W/m2 unknown
10:19 66.2 °F 62.6 °F 30.1 in East 8.1 mph 14.3 mph 89% 0 in 359.00 W/m2 unknown
10:24 66.2 °F 62.6 °F 30.1 in East 8.1 mph 11.8 mph 88% 0 in 345.00 W/m2 unknown
10:29 66.2 °F 62.6 °F 30.1 in East 6.8 mph 11.8 mph 88% 0 in 387.00 W/m2 unknown
10:34 66.2 °F 62.6 °F 30.1 in East 7.5 mph 10.6 mph 88% 0 in 369.00 W/m2 unknown
10:39 68 °F 62.6 °F 30.1 in East 9.3 mph 14.3 mph 88% 0 in 415.00 W/m2 unknown
10:44 68 °F 64.4 °F 30.1 in East 8.1 mph 14.3 mph 88% 0 in 383.00 W/m2 unknown
10:49 68 °F 64.4 °F 30.1 in East 9.9 mph 13 mph 87% 0 in 383.00 W/m2 unknown
10:54 68 °F 64.4 °F 30.1 in East 9.9 mph 13 mph 87% 0 in 322.00 W/m2 unknown
10:59 68 °F 64.4 °F 30.1 in East 10.6 mph 16.2 mph 87% 0 in 183.00 W/m2 unknown
11:04 68 °F 62.6 °F 30.1 in ESE 9.9 mph 16.2 mph 88% 0 in 156.00 W/m2 unknown
11:09 66.2 °F 62.6 °F 30.1 in East 8.7 mph 13 mph 88% 0 in 132.00 W/m2 unknown
11:14 66.2 °F 64.4 °F 30.1 in East 6.8 mph 9.3 mph 89% 0 in 118.00 W/m2 unknown
11:19 66.2 °F 64.4 °F 30.1 in East 5.6 mph 8.1 mph 89% 0 in 294.00 W/m2 unknown
11:24 68 °F 64.4 °F 30.1 in East 5 mph 8.1 mph 89% 0 in 338.00 W/m2 unknown
11:29 68 °F 64.4 °F 30.1 in East 6.2 mph 8.1 mph 89% 0 in 385.00 W/m2 unknown
11:34 68 °F 64.4 °F 30.1 in East 8.1 mph 10.6 mph 88% 0 in 366.00 W/m2 unknown
11:39 69.8 °F 64.4 °F 30.1 in East 8.7 mph 10.6 mph 87% 0 in 343.00 W/m2 unknown
11:44 69.8 °F 64.4 °F 30.1 in East 7.5 mph 9.9 mph 87% 0 in 352.00 W/m2 unknown
11:49 69.8 °F 64.4 °F 30.1 in ESE 9.3 mph 11.8 mph 87% 0 in 343.00 W/m2 unknown
11:54 69.8 °F 64.4 °F 30.1 in East 9.3 mph 11.8 mph 86% 0 in 304.00 W/m2 unknown
11:59 69.8 °F 64.4 °F 30.1 in East 8.7 mph 11.8 mph 86% 0 in 304.00 W/m2 unknown
12:04 69.8 °F 64.4 °F 30.1 in East 9.3 mph 11.8 mph 86% 0 in 278.00 W/m2 unknown
12:09 69.8 °F 64.4 °F 30.1 in ESE 7.5 mph 11.8 mph 86% 0 in 292.00 W/m2 unknown
12:14 69.8 °F 64.4 °F 30.1 in ESE 8.7 mph 11.2 mph 87% 0 in 236.00 W/m2 unknown
12:19 68 °F 64.4 °F 30.1 in East 8.7 mph 14.3 mph 87% 0 in 239.00 W/m2 unknown
12:24 68 °F 64.4 °F 30.1 in ESE 6.8 mph 14.3 mph 87% 0 in 316.00 W/m2 unknown
12:29 68 °F 64.4 °F 30.1 in East 8.1 mph 11.2 mph 87% 0 in 290.00 W/m2 unknown
12:34 68 °F 64.4 °F 30.1 in East 9.9 mph 14.3 mph 87% 0 in 311.00 W/m2 unknown
12:39 69.8 °F 64.4 °F 30.1 in ESE 8.7 mph 14.3 mph 87% 0 in 316.00 W/m2 unknown
12:44 69.8 °F 64.4 °F 30.1 in East 8.7 mph 11.8 mph 87% 0 in 396.00 W/m2 unknown
12:49 69.8 °F 66.2 °F 30.1 in ESE 9.9 mph 11.8 mph 86% 0 in 587.00 W/m2 unknown
12:54 69.8 °F 66.2 °F 30.1 in ESE 8.1 mph 13 mph 86% 0 in 577.00 W/m2 unknown
12:59 69.8 °F 66.2 °F 30.1 in East 8.7 mph 13 mph 85% 0 in 582.00 W/m2 unknown
13:04 69.8 °F 66.2 °F 30.1 in ENE 9.3 mph 13 mph 85% 0 in 564.00 W/m2 unknown
13:09 71.6 °F 66.2 °F 30.1 in ESE 6.2 mph 11.8 mph 84% 0 in 564.00 W/m2 unknown
13:14 71.6 °F 66.2 °F 30.1 in ESE 7.5 mph 10.6 mph 84% 0 in 455.00 W/m2 unknown
13:19 71.6 °F 66.2 °F 30.1 in ESE 6.8 mph 9.9 mph 84% 0 in 527.00 W/m2 unknown
13:24 71.6 °F 66.2 °F 30.1 in ESE 6.8 mph 10.6 mph 84% 0 in 504.00 W/m2 unknown
13:29 71.6 °F 66.2 °F 30.1 in ESE 8.7 mph 11.8 mph 83% 0 in 522.00 W/m2 unknown
13:34 71.6 °F 66.2 °F 30.1 in ESE 8.1 mph 11.8 mph 83% 0 in 570.00 W/m2 unknown
13:39 71.6 °F 66.2 °F 30.1 in ESE 9.9 mph 11.8 mph 82% 0 in 622.00 W/m2 unknown
13:44 71.6 °F 66.2 °F 30.1 in East 8.7 mph 11.8 mph 81% 0 in 515.00 W/m2 unknown
13:49 73.4 °F 66.2 °F 30.1 in ESE 8.1 mph 10.6 mph 81% 0 in 592.00 W/m2 unknown
13:54 73.4 °F 66.2 °F 30.1 in ESE 6.8 mph 9.9 mph 79% 0 in 545.00 W/m2 unknown
13:59 73.4 °F 66.2 °F 30.1 in East 7.5 mph 11.8 mph 79% 0 in 527.00 W/m2 unknown
14:04 73.4 °F 66.2 °F 30.1 in ESE 8.1 mph 11.8 mph 79% 0 in 541.00 W/m2 unknown
14:09 73.4 °F 66.2 °F 30.1 in ESE 7.5 mph 11.8 mph 79% 0 in 503.00 W/m2 unknown
14:14 73.4 °F 66.2 °F 30.1 in ESE 6.2 mph 8.7 mph 79% 0 in 258.00 W/m2 unknown
14:19 73.4 °F 66.2 °F 30.1 in East 8.7 mph 10.6 mph 79% 0 in 568.00 W/m2 unknown
14:24 73.4 °F 66.2 °F 30.1 in ESE 7.5 mph 9.9 mph 78% 0 in 543.00 W/m2 unknown
14:29 73.4 °F 66.2 °F 30.1 in ESE 5.6 mph 8.1 mph 78% 0 in 183.00 W/m2 unknown
14:34 73.4 °F 66.2 °F 30 in ESE 6.2 mph 8.1 mph 78% 0 in 188.00 W/m2 unknown
14:39 73.4 °F 64.4 °F 30 in ESE 5.6 mph 6.8 mph 77% 0 in 181.00 W/m2 unknown
14:44 73.4 °F 66.2 °F 30 in ESE 4.3 mph 6.8 mph 78% 0 in 176.00 W/m2 unknown
14:49 73.4 °F 66.2 °F 30 in SE 4.3 mph 6.8 mph 78% 0 in 132.00 W/m2 unknown
14:54 73.4 °F 66.2 °F 30 in SE 5 mph 8.1 mph 79% 0 in 165.00 W/m2 unknown
14:59 71.6 °F 66.2 °F 30 in SE 5.6 mph 9.3 mph 79% 0 in 206.00 W/m2 unknown
15:04 71.6 °F 66.2 °F 30 in ESE 6.2 mph 8.7 mph 79% 0 in 202.00 W/m2 unknown
15:09 71.6 °F 66.2 °F 30 in ESE 6.2 mph 8.1 mph 80% 0 in 193.00 W/m2 unknown
15:14 71.6 °F 66.2 °F 30 in ESE 5 mph 6.8 mph 80% 0 in 192.00 W/m2 unknown
15:19 71.6 °F 66.2 °F 30 in East 5.6 mph 9.3 mph 80% 0 in 401.00 W/m2 unknown
15:24 73.4 °F 66.2 °F 30 in East 5.6 mph 8.7 mph 80% 0 in 329.00 W/m2 unknown
15:29 73.4 °F 66.2 °F 30 in East 5 mph 6.8 mph 79% 0 in 352.00 W/m2 unknown
15:34 73.4 °F 66.2 °F 30 in East 4.3 mph 6.8 mph 80% 0 in 352.00 W/m2 unknown
15:39 73.4 °F 66.2 °F 30 in East 4.3 mph 6.8 mph 79% 0 in 348.00 W/m2 unknown
15:44 73.4 °F 66.2 °F 30 in ESE 6.8 mph 9.3 mph 78% 0 in 320.00 W/m2 unknown
15:49 73.4 °F 66.2 °F 30 in ESE 6.2 mph 8.7 mph 77% 0 in 316.00 W/m2 unknown
15:54 73.4 °F 66.2 °F 30 in ESE 7.5 mph 9.3 mph 77% 0 in 304.00 W/m2 unknown
15:59 73.4 °F 66.2 °F 30 in ESE 4.3 mph 8.7 mph 77% 0 in 288.00 W/m2 unknown
16:04 73.4 °F 66.2 °F 30 in ESE 6.2 mph 8.1 mph 77% 0 in 279.00 W/m2 unknown
16:09 73.4 °F 66.2 °F 30 in ESE 6.8 mph 8.7 mph 76% 0 in 267.00 W/m2 unknown
16:14 73.4 °F 66.2 °F 30 in ESE 7.5 mph 9.3 mph 76% 0 in 251.00 W/m2 unknown
16:19 73.4 °F 66.2 °F 30 in East 6.8 mph 9.3 mph 76% 0 in 248.00 W/m2 unknown
16:24 73.4 °F 66.2 °F 30 in ESE 6.8 mph 8.7 mph 77% 0 in 216.00 W/m2 unknown
16:29 73.4 °F 66.2 °F 30 in ESE 7.5 mph 10.6 mph 77% 0 in 156.00 W/m2 unknown
16:34 73.4 °F 66.2 °F 30 in East 6.8 mph 9.9 mph 78% 0 in 200.00 W/m2 unknown
16:39 73.4 °F 66.2 °F 30 in East 5 mph 8.7 mph 78% 0 in 102.00 W/m2 unknown
16:44 73.4 °F 66.2 °F 30 in East 5.6 mph 6.8 mph 78% 0 in 127.00 W/m2 unknown
16:49 71.6 °F 64.4 °F 30 in East 4.3 mph 6.8 mph 78% 0 in 127.00 W/m2 unknown
16:54 71.6 °F 66.2 °F 30 in East 5 mph 6.2 mph 79% 0 in 127.00 W/m2 unknown
16:59 71.6 °F 66.2 °F 30 in East 5 mph 6.8 mph 80% 0 in 84.00 W/m2 unknown
17:04 71.6 °F 66.2 °F 30 in ESE 5 mph 8.1 mph 80% 0 in 88.00 W/m2 unknown
17:09 71.6 °F 64.4 °F 30 in East 5.6 mph 8.1 mph 80% 0 in 88.00 W/m2 unknown
17:14 71.6 °F 66.2 °F 30 in East 5 mph 8.1 mph 81% 0 in 91.00 W/m2 unknown
17:19 71.6 °F 64.4 °F 30 in East 4.3 mph 6.2 mph 81% 0 in 63.00 W/m2 unknown
17:24 71.6 °F 64.4 °F 30 in East 3.7 mph 5 mph 81% 0 in 47.00 W/m2 unknown
17:29 71.6 °F 64.4 °F 30 in ENE 3.1 mph 5 mph 82% 0 in 47.00 W/m2 unknown
17:34 69.8 °F 64.4 °F 30 in ENE 3.1 mph 5 mph 82% 0 in 44.00 W/m2 unknown
17:39 69.8 °F 64.4 °F 30 in East 3.1 mph 5 mph 83% 0 in 35.00 W/m2 unknown
17:44 69.8 °F 64.4 °F 30 in East 4.3 mph 6.2 mph 83% 0 in 30.00 W/m2 unknown
17:49 69.8 °F 64.4 °F 30 in East 5 mph 6.8 mph 84% 0 in 23.00 W/m2 unknown
17:54 69.8 °F 64.4 °F 30 in SE 4.3 mph 6.8 mph 83% 0 in 21.00 W/m2 unknown
17:59 69.8 °F 64.4 °F 30 in SSE 2.5 mph 6.8 mph 83% 0 in 19.00 W/m2 unknown
18:04 69.8 °F 64.4 °F 30 in ESE 1.9 mph 5 mph 84% 0 in 14.00 W/m2 unknown
18:09 69.8 °F 64.4 °F 30 in SSE 1.2 mph 3.7 mph 84% 0 in 11.00 W/m2 unknown
18:14 69.8 °F 64.4 °F 30 in SE 2.5 mph 3.7 mph 84% 0 in 7.00 W/m2 unknown
18:19 69.8 °F 64.4 °F 30 in ESE 3.7 mph 5 mph 85% 0 in 0.00 W/m2 unknown
18:24 69.8 °F 64.4 °F 30 in East 4.3 mph 6.2 mph 85% 0 in 0.00 W/m2 unknown
18:29 69.8 °F 64.4 °F 30 in East 4.3 mph 6.2 mph 85% 0 in 0.00 W/m2 unknown
18:34 69.8 °F 64.4 °F 30 in East 8.1 mph 9.3 mph 85% 0 in 0.00 W/m2 unknown
18:39 69.8 °F 64.4 °F 30 in East 8.1 mph 9.3 mph 85% 0 in 0.00 W/m2 unknown
18:44 69.8 °F 64.4 °F 30 in East 4.3 mph 8.1 mph 85% 0 in 0.00 W/m2 unknown
18:49 68 °F 64.4 °F 30 in East 5.6 mph 8.1 mph 85% 0 in 0.00 W/m2 unknown
18:54 68 °F 64.4 °F 30 in East 3.1 mph 8.1 mph 85% 0 in 0.00 W/m2 unknown
18:59 68 °F 64.4 °F 30 in ESE 1.9 mph 5 mph 86% 0 in 0.00 W/m2 unknown
19:04 68 °F 64.4 °F 30 in ESE 1.9 mph 5 mph 86% 0 in 0.00 W/m2 unknown
19:09 68 °F 64.4 °F 30 in ESE 4.3 mph 6.2 mph 87% 0 in 0.00 W/m2 unknown
19:14 68 °F 64.4 °F 30 in ESE 5 mph 6.2 mph 87% 0 in 0.00 W/m2 unknown
19:19 68 °F 64.4 °F 30 in ESE 5 mph 6.2 mph 88% 0 in 0.00 W/m2 unknown
19:24 68 °F 64.4 °F 30 in East 4.3 mph 6.2 mph 88% 0 in 0.00 W/m2 unknown
19:29 66.2 °F 62.6 °F 30 in East 3.7 mph 6.2 mph 88% 0 in 0.00 W/m2 unknown
19:34 68 °F 62.6 °F 30 in East 4.3 mph 6.2 mph 88% 0 in 0.00 W/m2 unknown
19:39 68 °F 62.6 °F 30 in East 5 mph 6.2 mph 88% 0 in 0.00 W/m2 unknown
19:44 68 °F 62.6 °F 30 in ESE 5 mph 6.2 mph 87% 0 in 0.00 W/m2 unknown
19:49 66.2 °F 62.6 °F 30 in ESE 1.2 mph 6.2 mph 88% 0 in 0.00 W/m2 unknown
19:54 66.2 °F 62.6 °F 30 in East 3.1 mph 5 mph 88% 0 in 0.00 W/m2 unknown
19:59 66.2 °F 62.6 °F 30 in ENE 2.5 mph 5 mph 88% 0 in 0.00 W/m2 unknown
20:04 66.2 °F 62.6 °F 30 in ENE 2.5 mph 3.7 mph 89% 0 in 0.00 W/m2 unknown
20:09 66.2 °F 62.6 °F 30 in East 2.5 mph 3.7 mph 89% 0 in 0.00 W/m2 unknown
20:14 66.2 °F 62.6 °F 30 in ESE 1.9 mph 3.1 mph 89% 0 in 0.00 W/m2 unknown
20:19 66.2 °F 62.6 °F 30 in East 2.5 mph 3.7 mph 89% 0 in 0.00 W/m2 unknown
20:24 64.4 °F 62.6 °F 30 in East 3.1 mph 5 mph 89% 0 in 0.00 W/m2 unknown
20:29 64.4 °F 62.6 °F 30 in East 3.1 mph 5 mph 89% 0 in 0.00 W/m2 unknown
20:34 66.2 °F 62.6 °F 30 in East 3.7 mph 5 mph 89% 0 in 0.00 W/m2 unknown
20:39 66.2 °F 62.6 °F 30 in East 5.6 mph 6.2 mph 89% 0 in 0.00 W/m2 unknown
20:44 64.4 °F 62.6 °F 30 in East 5.6 mph 6.2 mph 89% 0 in 0.00 W/m2 unknown
20:49 64.4 °F 62.6 °F 30 in East 5.6 mph 6.8 mph 89% 0 in 0.00 W/m2 unknown
20:54 64.4 °F 62.6 °F 30 in East 5.6 mph 6.8 mph 89% 0 in 0.00 W/m2 unknown
20:59 64.4 °F 62.6 °F 30 in ESE 6.2 mph 6.8 mph 89% 0 in 0.00 W/m2 unknown
21:04 66.2 °F 62.6 °F 30 in East 6.8 mph 9.3 mph 89% 0 in 0.00 W/m2 unknown
21:09 66.2 °F 62.6 °F 30 in East 6.8 mph 8.7 mph 88% 0 in 0.00 W/m2 unknown
21:14 66.2 °F 62.6 °F 30 in East 7.5 mph 9.3 mph 88% 0 in 0.00 W/m2 unknown
21:19 66.2 °F 62.6 °F 30 in East 6.2 mph 8.7 mph 88% 0 in 0.00 W/m2 unknown
21:24 66.2 °F 62.6 °F 30 in East 5 mph 8.1 mph 88% 0 in 0.00 W/m2 unknown
21:29 64.4 °F 60.8 °F 30 in East 6.8 mph 8.1 mph 88% 0 in 0.00 W/m2 unknown
21:34 64.4 °F 62.6 °F 30 in East 6.8 mph 8.1 mph 89% 0 in 0.00 W/m2 unknown
21:39 64.4 °F 62.6 °F 30 in ENE 4.3 mph 6.8 mph 89% 0 in 0.00 W/m2 unknown
21:44 64.4 °F 60.8 °F 30 in East 3.7 mph 5 mph 89% 0 in 0.00 W/m2 unknown
21:49 64.4 °F 60.8 °F 30 in East 6.8 mph 8.1 mph 89% 0 in 0.00 W/m2 unknown
21:54 64.4 °F 60.8 °F 30 in East 6.2 mph 8.1 mph 89% 0 in 0.00 W/m2 unknown
21:59 64.4 °F 60.8 °F 30 in ENE 5.6 mph 8.1 mph 90% 0 in 0.00 W/m2 unknown
22:04 64.4 °F 60.8 °F 30 in East 5 mph 6.8 mph 90% 0 in 0.00 W/m2 unknown
22:09 64.4 °F 60.8 °F 30 in East 5.6 mph 6.8 mph 90% 0 in 0.00 W/m2 unknown
22:14 64.4 °F 60.8 °F 30 in East 5 mph 6.8 mph 90% 0 in 0.00 W/m2 unknown
22:19 64.4 °F 60.8 °F 30 in East 5.6 mph 6.8 mph 90% 0 in 0.00 W/m2 unknown
22:24 64.4 °F 60.8 °F 30 in East 6.8 mph 9.3 mph 90% 0 in 0.00 W/m2 unknown
22:29 64.4 °F 60.8 °F 30 in ENE 6.2 mph 8.7 mph 90% 0 in 0.00 W/m2 unknown
22:34 64.4 °F 60.8 °F 30 in East 5.6 mph 6.8 mph 90% 0 in 0.00 W/m2 unknown
22:39 64.4 °F 60.8 °F 30 in East 6.2 mph 6.8 mph 90% 0 in 0.00 W/m2 unknown
22:44 64.4 °F 60.8 °F 30 in East 5 mph 6.8 mph 91% 0 in 0.00 W/m2 unknown
22:49 64.4 °F 60.8 °F 30 in East 5.6 mph 6.8 mph 91% 0 in 0.00 W/m2 unknown
22:54 64.4 °F 60.8 °F 30 in East 5 mph 6.8 mph 91% 0 in 0.00 W/m2 unknown
22:59 64.4 °F 60.8 °F 30 in ENE 5.6 mph 6.8 mph 91% 0 in 0.00 W/m2 unknown
23:04 64.4 °F 60.8 °F 30 in East 6.2 mph 8.1 mph 91% 0 in 0.00 W/m2 unknown
23:09 64.4 °F 60.8 °F 30 in East 6.2 mph 8.1 mph 91% 0 in 0.00 W/m2 unknown
23:14 64.4 °F 60.8 °F 30 in East 6.2 mph 6.8 mph 91% 0 in 0.00 W/m2 unknown
23:19 64.4 °F 60.8 °F 30 in ENE 5 mph 6.8 mph 91% 0 in 0.00 W/m2 unknown
23:24 64.4 °F 60.8 °F 30 in East 5.6 mph 6.8 mph 92% 0 in 0.00 W/m2 unknown
23:29 64.4 °F 60.8 °F 30 in ENE 6.2 mph 6.8 mph 92% 0 in 0.00 W/m2 unknown
23:34 62.6 °F 60.8 °F 30 in East 5.6 mph 6.8 mph 91% 0 in 0.00 W/m2 unknown
23:39 62.6 °F 60.8 °F 30 in East 6.2 mph 6.8 mph 92% 0 in 0.00 W/m2 unknown
23:44 62.6 °F 60.8 °F 30 in East 5 mph 6.8 mph 92% 0 in 0.00 W/m2 unknown
23:49 62.6 °F 60.8 °F 30 in East 6.2 mph 8.1 mph 92% 0 in 0.00 W/m2 unknown
23:54 62.6 °F 60.8 °F 30 in East 7.5 mph 9.3 mph 92% 0 in 0.00 W/m2 unknown
23:59 62.6 °F 60.8 °F 30 in East 6.8 mph 8.7 mph 92% 0 in 0.00 W/m2 unknown
Stazione Meteorologica MeteoMincio Rivalta s/M (MN)
Con i complimenti di Weather Underground - 4 mb



GLOSSARIO METEOROLOGICO
Indice UV
E' una misura semplice per l'intensità della radiazione UV del sole, che non riusciamo a percepire ma comunque possiamo misurare. Con più l'indice è elevato, con più intensa è la radiazione solare. L'indice UV ci permette di meglio stimare l'intensità del sole e di adottare le misure necessarie per proteggerci.
Share

Non seguire questo link o sarai bannato dal sito!